Time;durP1;ratioP1;P1;durP2;ratioP2;P2;SDS_P1;SDS_P2;PMS_P1;PMS_P2;Temp;Humidity;BMP_temperature;BMP_pressure;BME280_temperature;BME280_humidity;BME280_pressure;Samples;Min_cycle;Max_cycle;Signal;HPM_P1;HPM_P2
2021/11/28 00:01:54;;;;;;;190.13;46.38;;;;;;;2.75;100.00;99590.63;5043945;28;20040;-76
2021/11/28 00:04:21;;;;;;;191.50;46.70;;;;;;;2.75;100.00;99591.47;5032300;28;20025;-76
2021/11/28 00:06:56;;;;;;;191.05;47.80;;;;;;;2.77;100.00;99592.41;5032109;28;20025;-77
2021/11/28 00:12:11;;;;;;;188.38;47.08;;;;;;;2.79;100.00;99597.66;5036059;28;20556;-77
2021/11/28 00:14:38;;;;;;;178.85;45.13;;;;;;;2.78;100.00;99601.09;5038747;28;20025;-77
2021/11/28 00:17:05;;;;;;;185.23;48.25;;;;;;;2.78;100.00;99607.19;5035934;28;20089;-76
2021/11/28 00:19:30;;;;;;;194.35;49.20;;;;;;;2.79;100.00;99608.03;5034201;28;20162;-76
2021/11/28 00:21:56;;;;;;;205.50;49.08;;;;;;;2.80;100.00;99607.22;5034936;28;20485;-76
2021/11/28 00:24:21;;;;;;;199.25;51.78;;;;;;;2.85;100.00;99608.22;5034687;28;20037;-76
2021/11/28 00:26:48;;;;;;;197.50;49.03;;;;;;;2.85;100.00;99611.69;5046353;28;20037;-76
2021/11/28 00:29:14;;;;;;;189.77;49.08;;;;;;;2.85;100.00;99618.63;5034771;28;20029;-76
2021/11/28 00:31:40;;;;;;;188.68;51.55;;;;;;;2.84;100.00;99611.66;5039687;28;20692;-76
2021/11/28 00:34:05;;;;;;;199.00;50.15;;;;;;;2.83;100.00;99615.09;5034346;28;20052;-75
2021/11/28 00:36:31;;;;;;;204.95;50.97;;;;;;;2.82;100.00;99616.81;5034720;28;20021;-76
2021/11/28 00:38:57;;;;;;;185.60;49.58;;;;;;;2.82;100.00;99618.50;5032335;28;20032;-76
2021/11/28 00:41:22;;;;;;;197.57;49.88;;;;;;;2.82;100.00;99613.31;5035012;28;20026;-77
2021/11/28 00:43:48;;;;;;;206.25;50.95;;;;;;;2.82;100.00;99622.00;5040887;28;20028;-76
2021/11/28 00:46:13;;;;;;;210.93;53.15;;;;;;;2.83;100.00;99623.75;5040415;28;20420;-77
2021/11/28 00:48:41;;;;;;;203.23;51.22;;;;;;;2.83;100.00;99626.34;5029006;28;20100;-77
2021/11/28 00:53:43;;;;;;;209.57;53.40;;;;;;;2.84;100.00;99629.84;5033827;28;20033;-76
2021/11/28 00:56:08;;;;;;;200.00;51.03;;;;;;;2.85;100.00;99642.00;5034560;28;20052;-77
2021/11/28 00:58:34;;;;;;;202.77;51.10;;;;;;;2.84;100.00;99638.50;5034211;28;20446;-78
2021/11/28 01:00:59;;;;;;;201.45;52.10;;;;;;;2.85;100.00;99649.78;5035590;28;20057;-77
2021/11/28 01:03:26;;;;;;;193.63;49.13;;;;;;;2.86;100.00;99654.13;5036466;28;20093;-76
2021/11/28 01:05:53;;;;;;;190.70;48.78;;;;;;;2.86;100.00;99646.34;5038212;28;20037;-76
2021/11/28 01:08:21;;;;;;;189.77;49.65;;;;;;;2.87;100.00;99648.09;5040638;28;20094;-77
2021/11/28 01:10:48;;;;;;;194.75;49.70;;;;;;;2.87;100.00;99648.97;5035582;28;20035;-77
2021/11/28 01:13:15;;;;;;;195.65;48.40;;;;;;;2.86;100.00;99657.63;5038938;28;20020;-76
2021/11/28 01:15:43;;;;;;;202.88;48.22;;;;;;;2.86;100.00;99656.72;5042475;28;20045;-77
2021/11/28 01:18:09;;;;;;;170.00;48.55;;;;;;;2.88;100.00;99665.47;5033492;28;20280;-77
2021/11/28 01:20:35;;;;;;;198.02;47.85;;;;;;;2.88;100.00;99665.47;5034647;28;20080;-76
2021/11/28 01:23:00;;;;;;;202.23;48.03;;;;;;;2.88;100.00;99670.66;5038319;28;20037;-77
2021/11/28 01:25:26;;;;;;;198.82;47.90;;;;;;;2.89;100.00;99671.53;5035172;28;20033;-76
2021/11/28 01:27:52;;;;;;;198.75;48.20;;;;;;;2.89;100.00;99675.03;5041639;28;20029;-76
2021/11/28 01:30:18;;;;;;;193.82;48.92;;;;;;;2.89;100.00;99682.81;5034972;28;20474;-76
2021/11/28 01:32:44;;;;;;;194.00;48.22;;;;;;;2.91;100.00;99686.31;5036176;28;20036;-76
2021/11/28 01:35:16;;;;;;;208.48;48.17;;;;;;;2.91;100.00;99695.84;5033350;28;20025;-76
2021/11/28 01:37:44;;;;;;;201.55;50.30;;;;;;;2.91;100.00;99680.25;5031053;28;20029;-76
2021/11/28 01:40:19;;;;;;;193.32;51.20;;;;;;;2.94;100.00;99688.13;5032032;28;20021;-76
2021/11/28 01:42:52;;;;;;;210.63;50.30;;;;;;;2.93;100.00;99687.25;5037008;28;20102;-76
2021/11/28 01:45:23;;;;;;;180.10;46.85;;;;;;;2.91;100.00;99686.31;5030685;28;20044;-76
2021/11/28 01:47:50;;;;;;;192.77;48.83;;;;;;;2.89;100.00;99690.63;5035109;28;20044;-76
2021/11/28 01:50:17;;;;;;;187.60;48.03;;;;;;;2.89;100.00;99689.72;5033439;28;20032;-77
2021/11/28 01:52:43;;;;;;;181.00;47.75;;;;;;;2.89;100.00;99690.63;5037056;28;20116;-77
2021/11/28 01:55:13;;;;;;;188.80;47.05;;;;;;;2.88;100.00;99696.63;5034370;28;20060;-77
2021/11/28 01:57:39;;;;;;;176.07;48.67;;;;;;;2.88;100.00;99694.03;5037997;28;20079;-76
2021/11/28 02:00:12;;;;;;;179.35;47.63;;;;;;;2.88;100.00;99707.03;5034631;28;20036;-76
2021/11/28 02:02:41;;;;;;;176.57;45.22;;;;;;;2.87;100.00;99706.13;5033923;28;20048;-76
2021/11/28 02:05:07;;;;;;;178.82;48.00;;;;;;;2.87;100.00;99706.13;5034606;28;20623;-76
2021/11/28 02:07:33;;;;;;;165.13;44.85;;;;;;;2.88;100.00;99701.84;5038660;28;20030;-76
2021/11/28 02:09:58;;;;;;;166.98;45.03;;;;;;;2.87;100.00;99700.06;5030114;28;20386;-76
2021/11/28 02:12:29;;;;;;;182.25;45.17;;;;;;;2.88;100.00;99707.03;5034384;28;20378;-77
2021/11/28 02:14:55;;;;;;;165.75;43.60;;;;;;;2.89;100.00;99710.50;5042291;28;20036;-76
2021/11/28 02:17:21;;;;;;;169.30;42.33;;;;;;;2.88;100.00;99712.22;5034775;28;20033;-76
2021/11/28 02:19:48;;;;;;;147.57;43.45;;;;;;;2.89;100.00;99713.09;5032364;28;20094;-75
2021/11/28 02:22:15;;;;;;;178.27;44.78;;;;;;;2.90;100.00;99715.75;5032379;28;20456;-76
2021/11/28 02:24:41;;;;;;;155.73;43.22;;;;;;;2.89;100.00;99719.19;5033265;28;20103;-76
2021/11/28 02:27:07;;;;;;;155.93;41.50;;;;;;;2.86;100.00;99719.09;5023425;28;20071;-77
2021/11/28 02:29:32;;;;;;;157.05;41.97;;;;;;;2.84;100.00;99732.03;5033586;28;20120;-77
2021/11/28 02:31:58;;;;;;;145.25;40.40;;;;;;;2.85;100.00;99730.34;5033690;28;20026;-76
2021/11/28 02:34:23;;;;;;;152.65;40.92;;;;;;;2.84;100.00;99733.75;5034855;28;20034;-77
2021/11/28 02:36:53;;;;;;;146.20;39.03;;;;;;;2.84;100.00;99734.63;5040667;28;20037;-76
2021/11/28 02:39:20;;;;;;;150.52;38.65;;;;;;;2.85;100.00;99739.00;5030377;28;20478;-77
2021/11/28 02:41:47;;;;;;;147.45;39.58;;;;;;;2.85;100.00;99739.00;5033205;28;20095;-76
2021/11/28 02:44:15;;;;;;;153.10;40.75;;;;;;;2.87;100.00;99741.63;5031638;28;20033;-76
2021/11/28 02:46:43;;;;;;;148.60;39.10;;;;;;;2.87;100.00;99742.50;5033293;28;20036;-76
2021/11/28 02:49:09;;;;;;;150.57;39.33;;;;;;;2.89;100.00;99739.09;5033016;28;20065;-76
2021/11/28 02:51:37;;;;;;;145.40;39.72;;;;;;;2.89;100.00;99750.38;5031699;28;20513;-75
2021/11/28 02:54:04;;;;;;;130.68;37.75;;;;;;;2.90;100.00;99749.50;5028853;28;20175;-76
2021/11/28 02:56:32;;;;;;;137.27;38.88;;;;;;;2.89;100.00;99750.38;5032671;28;20029;-75
2021/11/28 02:58:57;;;;;;;133.13;36.40;;;;;;;2.88;100.00;99751.19;5033602;28;20049;-77
2021/11/28 03:01:23;;;;;;;116.97;35.05;;;;;;;2.89;100.00;99760.78;5032267;28;20045;-75
2021/11/28 03:03:50;;;;;;;128.90;36.08;;;;;;;2.85;100.00;99753.72;5033861;28;20040;-76
2021/11/28 03:06:16;;;;;;;107.00;32.13;;;;;;;2.80;100.00;99752.69;5032211;28;20021;-76
2021/11/28 03:08:42;;;;;;;111.57;32.30;;;;;;;2.73;100.00;99746.44;5032085;28;20101;-76
2021/11/28 03:11:11;;;;;;;104.40;31.45;;;;;;;2.66;100.00;99750.56;5033663;28;20029;-77
2021/11/28 03:13:41;;;;;;;91.32;29.08;;;;;;;2.55;100.00;99744.16;5033052;28;20053;-76
2021/11/28 03:16:12;;;;;;;106.35;32.22;;;;;;;2.44;100.00;99746.41;5031832;28;20112;-76
2021/11/28 03:18:38;;;;;;;104.47;31.25;;;;;;;2.31;100.00;99739.94;5027216;28;20029;-76
2021/11/28 03:21:17;;;;;;;105.78;30.67;;;;;;;2.22;100.00;99739.63;5033069;28;20052;-76
2021/11/28 03:23:47;;;;;;;107.20;29.75;;;;;;;2.12;100.00;99742.78;5030097;28;20425;-76
2021/11/28 03:26:21;;;;;;;101.03;29.88;;;;;;;2.02;100.00;99737.28;5032427;28;20159;-77
2021/11/28 03:28:55;;;;;;;102.60;31.13;;;;;;;1.96;100.00;99742.25;5031887;28;20033;-77
2021/11/28 03:31:23;;;;;;;122.20;30.98;;;;;;;1.91;100.00;99748.13;5036302;28;20055;-76
2021/11/28 03:33:50;;;;;;;113.03;31.42;;;;;;;1.84;100.00;99757.41;5030852;28;20033;-76
2021/11/28 03:36:19;;;;;;;114.22;31.50;;;;;;;1.76;100.00;99756.28;5033120;28;20197;-77
2021/11/28 03:38:46;;;;;;;127.93;32.08;;;;;;;1.70;100.00;99759.53;5031604;28;20022;-77
2021/11/28 03:41:12;;;;;;;130.80;32.40;;;;;;;1.65;100.00;99756.78;5031104;28;20054;-77
2021/11/28 03:43:39;;;;;;;114.45;33.22;;;;;;;1.58;100.00;99756.53;5029733;28;20035;-76
2021/11/28 03:46:05;;;;;;;127.45;32.92;;;;;;;1.50;100.00;99761.44;5031668;28;20056;-76
2021/11/28 03:48:30;;;;;;;127.32;32.00;;;;;;;1.44;100.00;99759.50;5030923;28;20473;-76
2021/11/28 03:50:56;;;;;;;120.95;32.70;;;;;;;1.38;100.00;99758.41;5032661;28;20064;-76
2021/11/28 03:53:21;;;;;;;124.72;32.25;;;;;;;1.33;100.00;99764.31;5035281;28;20041;-76
2021/11/28 03:55:47;;;;;;;123.28;33.40;;;;;;;1.29;100.00;99764.13;5032729;28;20029;-77
2021/11/28 03:58:13;;;;;;;149.80;35.65;;;;;;;1.28;100.00;99763.25;5029305;28;20034;-76
2021/11/28 04:00:39;;;;;;;154.27;34.70;;;;;;;1.25;100.00;99759.66;5022483;28;20533;-76
2021/11/28 04:03:09;;;;;;;148.85;35.70;;;;;;;1.22;100.00;99764.72;5038767;28;20025;-76
2021/11/28 04:05:34;;;;;;;123.45;33.20;;;;;;;1.16;100.00;99763.69;5030815;28;20037;-77
2021/11/28 04:08:00;;;;;;;135.55;33.50;;;;;;;1.14;100.00;99757.56;5026575;28;20518;-76
2021/11/28 04:10:26;;;;;;;137.80;32.90;;;;;;;1.12;100.00;99771.28;5032451;28;20381;-76
2021/11/28 04:12:51;;;;;;;153.52;34.65;;;;;;;1.11;100.00;99766.94;5032692;28;20049;-76
2021/11/28 04:15:17;;;;;;;157.60;34.55;;;;;;;1.11;100.00;99767.84;5034089;28;20034;-77
2021/11/28 04:17:42;;;;;;;143.88;32.17;;;;;;;1.11;100.00;99766.94;5031316;28;20481;-76
2021/11/28 04:20:09;;;;;;;134.50;32.60;;;;;;;1.11;100.00;99772.13;5033718;28;20021;-77
2021/11/28 04:22:35;;;;;;;144.77;31.95;;;;;;;1.11;100.00;99766.94;5031802;28;20112;-77
2021/11/28 04:25:02;;;;;;;153.75;35.20;;;;;;;1.08;100.00;99772.00;5036113;28;20557;-77
2021/11/28 04:27:28;;;;;;;156.20;33.60;;;;;;;1.06;100.00;99769.38;5031178;28;20030;-77
2021/11/28 04:29:53;;;;;;;154.20;36.00;;;;;;;1.06;100.00;99771.06;5032118;28;20033;-76
2021/11/28 04:32:19;;;;;;;153.23;34.08;;;;;;;1.00;100.00;99762.25;5032587;28;20021;-77
2021/11/28 04:34:45;;;;;;;152.88;34.83;;;;;;;0.98;100.00;99766.47;5031794;28;20013;-76
2021/11/28 04:37:11;;;;;;;155.68;32.97;;;;;;;0.94;100.00;99764.59;5035537;28;20037;-77
2021/11/28 04:39:38;;;;;;;145.20;33.67;;;;;;;0.92;100.00;99767.94;5022987;28;20053;-77
2021/11/28 04:42:04;;;;;;;148.77;32.95;;;;;;;0.91;100.00;99766.19;5031576;28;20021;-77
2021/11/28 04:44:30;;;;;;;165.30;34.65;;;;;;;0.92;100.00;99760.19;5031261;28;20045;-77
2021/11/28 04:46:55;;;;;;;157.65;34.40;;;;;;;0.88;100.00;99766.94;5030869;28;20034;-77
2021/11/28 04:49:23;;;;;;;156.88;35.88;;;;;;;0.86;100.00;99770.31;5033272;28;20489;-77
2021/11/28 04:51:49;;;;;;;171.25;33.47;;;;;;;0.83;100.00;99765.91;5032686;28;20036;-76
2021/11/28 04:54:17;;;;;;;157.10;33.20;;;;;;;0.80;100.00;99763.19;5036999;28;20021;-76
2021/11/28 04:56:43;;;;;;;147.52;32.10;;;;;;;0.78;100.00;99767.44;5036530;28;20053;-76
2021/11/28 04:59:09;;;;;;;139.98;34.22;;;;;;;0.79;100.00;99774.38;5035281;28;20040;-77
2021/11/28 05:01:35;;;;;;;152.45;33.05;;;;;;;0.81;100.00;99777.91;5040864;28;20031;-76
2021/11/28 05:04:00;;;;;;;185.38;36.15;;;;;;;0.84;100.00;99778.00;5035545;28;20513;-76
2021/11/28 05:06:26;;;;;;;154.63;33.20;;;;;;;0.81;100.00;99778.81;5035793;28;20034;-76
2021/11/28 05:08:51;;;;;;;158.45;34.28;;;;;;;0.81;100.00;99783.97;5043768;28;20031;-76
2021/11/28 05:11:19;;;;;;;165.40;32.38;;;;;;;0.84;100.00;99788.38;5034561;28;20477;-76
2021/11/28 05:13:44;;;;;;;164.82;34.22;;;;;;;0.84;100.00;99788.38;5034201;28;20040;-75
2021/11/28 05:16:10;;;;;;;157.82;34.55;;;;;;;0.82;100.00;99790.03;5033417;28;20022;-76
2021/11/28 05:18:35;;;;;;;162.65;33.15;;;;;;;0.83;100.00;99790.09;5035303;28;20477;-75
2021/11/28 05:21:01;;;;;;;163.02;34.53;;;;;;;0.82;100.00;99796.06;5034789;28;20037;-76
2021/11/28 05:23:26;;;;;;;166.60;33.53;;;;;;;0.81;100.00;99798.63;5035008;28;20046;-76
2021/11/28 05:25:52;;;;;;;171.63;34.80;;;;;;;0.93;100.00;99801.69;5035684;28;20040;-76
2021/11/28 05:28:18;;;;;;;181.90;35.97;;;;;;;0.92;100.00;99799.91;5032839;28;20543;-76
2021/11/28 05:30:43;;;;;;;175.57;34.25;;;;;;;0.94;100.00;99800.84;5035242;28;20026;-77
2021/11/28 05:33:09;;;;;;;179.85;36.15;;;;;;;0.94;100.00;99806.03;5032771;28;20053;-77
2021/11/28 05:35:34;;;;;;;177.30;33.60;;;;;;;0.91;100.00;99811.09;5030915;28;20032;-77
2021/11/28 05:38:00;;;;;;;177.95;35.38;;;;;;;0.89;100.00;99804.97;5036289;28;20029;-76
2021/11/28 05:40:26;;;;;;;178.27;35.10;;;;;;;0.89;100.00;99804.97;5030820;28;20037;-76
2021/11/28 05:42:53;;;;;;;171.68;34.22;;;;;;;0.90;100.00;99808.47;5033462;28;20404;-76
2021/11/28 05:45:26;;;;;;;171.80;33.42;;;;;;;0.91;100.00;99811.09;5032532;28;20056;-78
2021/11/28 05:47:52;;;;;;;190.68;33.67;;;;;;;0.88;100.00;99810.97;5031282;28;20104;-76
2021/11/28 05:50:21;;;;;;;173.50;33.45;;;;;;;0.85;100.00;99810.84;5030080;28;20037;-75
2021/11/28 05:52:46;;;;;;;176.65;34.83;;;;;;;0.84;100.00;99812.56;5032975;28;20033;-77
2021/11/28 05:55:12;;;;;;;158.90;34.63;;;;;;;0.85;100.00;99810.84;5033171;28;20460;-78
2021/11/28 05:57:38;;;;;;;180.20;33.88;;;;;;;0.87;100.00;99814.41;5025680;28;20030;-77
2021/11/28 06:00:06;;;;;;;184.85;34.45;;;;;;;0.86;100.00;99816.94;5026435;28;20051;-77
2021/11/28 06:02:31;;;;;;;169.30;34.75;;;;;;;0.87;100.00;99824.75;5028228;28;20028;-78
2021/11/28 06:04:57;;;;;;;178.07;32.10;;;;;;;0.86;100.00;99833.34;5022081;28;20129;-79
2021/11/28 06:07:23;;;;;;;181.63;35.70;;;;;;;0.84;100.00;99830.72;5022224;28;20025;-75
2021/11/28 06:09:49;;;;;;;148.70;30.77;;;;;;;0.80;100.00;99833.09;5027986;28;20033;-77
2021/11/28 06:12:15;;;;;;;165.23;31.58;;;;;;;0.82;100.00;99826.28;5027249;28;20026;-75
2021/11/28 06:14:41;;;;;;;170.75;32.72;;;;;;;0.78;100.00;99832.16;5029701;28;20017;-76
2021/11/28 06:17:07;;;;;;;158.93;30.45;;;;;;;0.72;100.00;99829.31;5029225;28;20477;-76
2021/11/28 06:19:32;;;;;;;168.80;31.77;;;;;;;0.67;100.00;99824.84;5034750;28;20500;-77
2021/11/28 06:22:06;;;;;;;146.88;30.38;;;;;;;0.67;100.00;99826.56;5028123;28;20021;-74
2021/11/28 06:24:32;;;;;;;156.73;30.08;;;;;;;0.65;100.00;99831.69;5024077;28;20109;-75
2021/11/28 06:26:58;;;;;;;160.82;32.03;;;;;;;0.63;100.00;99835.91;5032245;28;20029;-75
2021/11/28 06:29:23;;;;;;;159.55;33.20;;;;;;;0.65;100.00;99838.53;5029463;28;20512;-75
2021/11/28 06:31:49;;;;;;;168.25;34.55;;;;;;;0.62;100.00;99841.91;5030590;28;20030;-75
2021/11/28 06:34:15;;;;;;;161.23;32.45;;;;;;;0.68;100.00;99846.47;5028920;28;20470;-75
2021/11/28 06:36:41;;;;;;;166.85;32.75;;;;;;;0.65;100.00;99843.72;5029961;28;20433;-75
2021/11/28 06:39:07;;;;;;;160.88;31.48;;;;;;;0.65;100.00;99847.22;5028573;28;20034;-75
2021/11/28 06:41:34;;;;;;;183.05;36.05;;;;;;;0.81;100.00;99850.41;5023100;28;20026;-75
2021/11/28 06:43:59;;;;;;;181.45;34.65;;;;;;;0.81;100.00;99856.50;5024941;28;20060;-74
2021/11/28 06:46:25;;;;;;;178.02;34.97;;;;;;;0.81;100.00;99856.50;5021767;28;20061;-76
2021/11/28 06:48:51;;;;;;;170.68;33.80;;;;;;;0.84;100.00;99855.69;5023702;28;20030;-76
2021/11/28 06:51:16;;;;;;;184.10;36.08;;;;;;;0.88;100.00;99857.59;5029613;28;20460;-76
2021/11/28 06:53:42;;;;;;;171.13;36.70;;;;;;;0.91;100.00;99856.81;5039114;28;20045;-75
2021/11/28 06:56:08;;;;;;;186.10;34.75;;;;;;;0.92;100.00;99866.38;5029240;28;20041;-75
2021/11/28 06:58:39;;;;;;;186.00;34.53;;;;;;;0.93;100.00;99866.44;5031246;28;20465;-75
2021/11/28 07:01:05;;;;;;;175.48;34.38;;;;;;;0.95;100.00;99872.56;5024555;28;20026;-74
2021/11/28 07:03:30;;;;;;;175.02;34.53;;;;;;;0.98;100.00;99870.09;5027999;28;20032;-76
2021/11/28 07:05:56;;;;;;;200.55;37.28;;;;;;;0.98;100.00;99874.41;5029307;28;20025;-76
2021/11/28 07:08:21;;;;;;;203.63;38.53;;;;;;;1.01;100.00;99877.97;5022740;28;20103;-75
2021/11/28 07:10:47;;;;;;;193.75;34.88;;;;;;;1.02;100.00;99886.66;5025591;28;20025;-75
2021/11/28 07:13:14;;;;;;;191.80;35.10;;;;;;;1.05;100.00;99891.06;5023918;28;20429;-75
2021/11/28 07:15:42;;;;;;;204.05;39.08;;;;;;;1.11;100.00;99888.69;5023354;28;20034;-75
2021/11/28 07:18:07;;;;;;;187.25;35.97;;;;;;;1.14;100.00;99892.31;5028852;28;20560;-75
2021/11/28 07:20:33;;;;;;;186.07;36.70;;;;;;;1.17;100.00;99901.91;5023950;28;20057;-76
2021/11/28 07:23:00;;;;;;;202.73;38.45;;;;;;;1.22;100.00;99909.84;5023809;28;20079;-76
2021/11/28 07:25:26;;;;;;;201.63;40.70;;;;;;;1.24;100.00;99903.91;5021603;28;20021;-76
2021/11/28 07:27:51;;;;;;;214.82;41.15;;;;;;;1.27;100.00;99908.31;5029044;28;20040;-77
2021/11/28 07:30:17;;;;;;;175.30;36.58;;;;;;;1.32;100.00;99915.44;5021093;28;20037;-76
2021/11/28 07:32:42;;;;;;;199.88;39.00;;;;;;;1.41;100.00;99911.44;5023245;28;20027;-75
2021/11/28 07:35:08;;;;;;;200.38;38.67;;;;;;;1.48;100.00;99919.53;5026781;28;20021;-76
2021/11/28 07:37:35;;;;;;;212.32;41.20;;;;;;;1.58;100.00;99925.06;5031003;28;20496;-75
2021/11/28 07:40:00;;;;;;;209.20;39.80;;;;;;;1.69;100.00;99942.75;5030560;28;20025;-76
2021/11/28 07:42:26;;;;;;;222.70;45.97;;;;;;;1.80;100.00;99942.28;5024873;28;20124;-76
2021/11/28 07:44:51;;;;;;;205.15;43.38;;;;;;;1.88;100.00;99940.88;5023274;28;20028;-74
2021/11/28 07:47:17;;;;;;;220.68;40.80;;;;;;;1.95;100.00;99947.16;5020222;28;20061;-75
2021/11/28 07:49:42;;;;;;;224.63;42.67;;;;;;;1.99;100.00;99946.44;5030676;28;20039;-77
2021/11/28 07:52:08;;;;;;;196.98;37.08;;;;;;;2.07;100.00;99945.00;5027781;28;20035;-77
2021/11/28 07:54:34;;;;;;;189.32;34.65;;;;;;;2.11;100.00;99948.63;5024184;28;20454;-76
2021/11/28 07:57:02;;;;;;;168.23;32.45;;;;;;;2.14;100.00;99949.63;5026465;28;20033;-77
2021/11/28 07:59:33;;;;;;;143.65;30.90;;;;;;;2.17;100.00;99954.91;5024300;28;20109;-77
2021/11/28 08:02:00;;;;;;;155.07;31.02;;;;;;;2.21;100.00;99953.28;5024998;28;20388;-77
2021/11/28 08:04:25;;;;;;;115.55;28.10;;;;;;;2.22;100.00;99956.78;5020896;28;20045;-77
2021/11/28 08:06:51;;;;;;;127.40;27.25;;;;;;;2.24;100.00;99956.03;5028423;28;20025;-78
2021/11/28 08:09:19;;;;;;;115.97;24.95;;;;;;;2.28;100.00;99964.78;5026945;28;20033;-79
2021/11/28 08:11:48;;;;;;;94.13;22.08;;;;;;;2.34;100.00;99963.28;5029306;28;20099;-75
2021/11/28 08:14:14;;;;;;;67.63;16.48;;;;;;;2.39;100.00;99966.06;5023839;28;20033;-74
2021/11/28 08:16:40;;;;;;;42.70;12.07;;;;;;;2.46;100.00;99967.16;5026421;28;20037;-76
2021/11/28 08:19:06;;;;;;;34.08;8.40;;;;;;;2.54;100.00;99978.69;5025837;28;20473;-77
2021/11/28 08:21:32;;;;;;;27.60;7.55;;;;;;;2.56;100.00;99983.94;5031851;28;20022;-77
2021/11/28 08:24:04;;;;;;;21.25;6.82;;;;;;;2.61;100.00;99985.88;5024294;28;20136;-76
2021/11/28 08:26:31;;;;;;;16.00;5.35;;;;;;;2.67;100.00;99991.28;5028158;28;20033;-77
2021/11/28 08:28:57;;;;;;;12.75;5.00;;;;;;;2.68;100.00;99998.22;5023503;28;20081;-76
2021/11/28 08:31:23;;;;;;;11.18;4.38;;;;;;;2.74;100.00;100004.47;5027070;28;20111;-77
2021/11/28 08:33:48;;;;;;;21.58;5.13;;;;;;;2.78;100.00;100007.25;5029076;28;20033;-77
2021/11/28 08:36:18;;;;;;;19.05;4.95;;;;;;;2.80;100.00;100015.09;5033621;28;20123;-76
2021/11/28 08:38:45;;;;;;;14.80;3.70;;;;;;;2.83;100.00;100009.97;5027419;28;20034;-76
2021/11/28 08:41:11;;;;;;;9.10;4.10;;;;;;;2.82;100.00;100008.22;5026997;28;20125;-75
2021/11/28 08:43:38;;;;;;;13.18;3.97;;;;;;;2.81;100.00;99996.94;5024754;28;20035;-75
2021/11/28 08:46:03;;;;;;;10.32;3.38;;;;;;;2.82;100.00;100005.63;5033462;28;20416;-75
2021/11/28 08:48:29;;;;;;;10.07;3.63;;;;;;;2.82;100.00;100010.81;5030706;28;20033;-75
2021/11/28 08:50:56;;;;;;;6.28;3.28;;;;;;;2.84;100.00;100016.97;5022813;28;20033;-75
2021/11/28 08:53:22;;;;;;;11.20;3.42;;;;;;;2.84;100.00;100020.44;5025075;28;20026;-75
2021/11/28 08:55:47;;;;;;;8.95;3.15;;;;;;;2.85;100.00;100019.59;5030667;28;20032;-76
2021/11/28 08:58:13;;;;;;;12.70;3.25;;;;;;;2.87;100.00;100022.25;5032923;28;20040;-76
2021/11/28 09:00:38;;;;;;;6.35;2.40;;;;;;;2.87;100.00;100030.03;5031367;28;20032;-77
2021/11/28 09:03:04;;;;;;;8.23;2.50;;;;;;;2.89;100.00;100031.00;5035795;28;20364;-76
2021/11/28 09:05:29;;;;;;;8.52;2.40;;;;;;;2.90;100.00;100040.53;5035332;28;21658;-75
2021/11/28 09:07:57;;;;;;;9.02;1.73;;;;;;;2.85;100.00;100043.00;5031988;28;20033;-77
2021/11/28 09:10:29;;;;;;;4.28;1.95;;;;;;;2.82;100.00;100045.50;5034061;28;20033;-76
2021/11/28 09:12:57;;;;;;;7.82;1.60;;;;;;;2.80;100.00;100043.66;5034517;28;20040;-77
2021/11/28 09:15:25;;;;;;;4.90;1.60;;;;;;;2.75;100.00;100051.28;5030634;28;20513;-77
2021/11/28 09:17:57;;;;;;;5.10;1.40;;;;;;;2.74;100.00;100061.63;5033456;28;20025;-76
2021/11/28 09:20:24;;;;;;;3.85;0.93;;;;;;;2.70;100.00;100061.53;5013503;28;20025;-76
2021/11/28 09:25:17;;;;;;;2.03;0.50;;;;;;;2.56;100.00;100067.91;5035467;28;20099;-76
2021/11/28 09:27:45;;;;;;;1.58;0.70;;;;;;;2.52;100.00;100066.94;5029793;28;20109;-76
2021/11/28 09:30:12;;;;;;;3.70;0.95;;;;;;;2.50;100.00;100070.31;5031076;28;20040;-75
2021/11/28 09:32:40;;;;;;;5.22;0.80;;;;;;;2.47;100.00;100072.78;5035667;28;20041;-75
2021/11/28 09:35:07;;;;;;;4.43;0.88;;;;;;;2.47;100.00;100077.97;5033924;28;20068;-76
2021/11/28 09:37:33;;;;;;;4.68;0.85;;;;;;;2.46;100.00;100086.59;5033043;28;20036;-80
2021/11/28 09:39:59;;;;;;;2.67;0.98;;;;;;;2.45;100.00;100083.09;5033524;28;20026;-76
2021/11/28 09:42:30;;;;;;;4.05;0.80;;;;;;;2.45;100.00;100082.22;5031110;28;20544;-76
2021/11/28 09:44:58;;;;;;;4.20;1.23;;;;;;;2.43;100.00;100086.47;5035853;28;20052;-76
2021/11/28 09:47:25;;;;;;;3.03;1.00;;;;;;;2.46;100.00;100081.41;5032182;28;20028;-74
2021/11/28 09:49:53;;;;;;;1.08;0.50;;;;;;;2.44;100.00;100078.78;5030165;28;20033;-75
2021/11/28 09:52:23;;;;;;;2.05;0.68;;;;;;;2.44;100.00;100077.84;5031455;28;20029;-76
2021/11/28 09:54:57;;;;;;;5.85;0.60;;;;;;;2.44;100.00;100072.66;5032894;28;20018;-76
2021/11/28 09:57:23;;;;;;;0.47;0.40;;;;;;;2.44;100.00;100057.09;5033050;28;20025;-75
2021/11/28 09:59:51;;;;;;;0.40;0.30;;;;;;;2.42;100.00;100054.44;5033921;28;20057;-79
2021/11/28 10:02:24;;;;;;;0.60;0.60;;;;;;;2.43;100.00;100060.50;5034441;28;20485;-78
2021/11/28 10:04:51;;;;;;;0.82;0.45;;;;;;;2.45;100.00;100067.53;5032779;28;20116;-79
2021/11/28 10:07:18;;;;;;;0.50;0.50;;;;;;;2.46;100.00;100058.91;5035187;28;20087;-78
2021/11/28 10:09:44;;;;;;;1.05;0.60;;;;;;;2.52;100.00;100042.66;5034089;28;20025;-78
2021/11/28 10:12:22;;;;;;;0.88;0.52;;;;;;;2.53;100.00;100039.25;5034765;28;20473;-78
2021/11/28 10:14:59;;;;;;;3.60;1.10;;;;;;;2.53;100.00;100047.03;5042082;28;20021;-79
2021/11/28 10:17:35;;;;;;;2.08;0.80;;;;;;;2.54;100.00;100051.41;5033620;28;20370;-77
2021/11/28 10:20:05;;;;;;;1.35;0.70;;;;;;;2.53;100.00;100047.03;5027528;28;20044;-78
2021/11/28 10:22:31;;;;;;;2.90;0.70;;;;;;;2.56;100.00;100057.53;5034797;28;20618;-78
2021/11/28 10:25:16;;;;;;;2.03;0.63;;;;;;;2.54;100.00;100054.00;5034688;28;20093;-78
2021/11/28 10:27:54;;;;;;;0.75;0.65;;;;;;;2.55;100.00;100050.59;5034527;28;20033;-77
2021/11/28 10:30:33;;;;;;;2.90;0.80;;;;;;;2.59;100.00;100057.66;5031502;28;20030;-78
2021/11/28 10:33:16;;;;;;;1.88;1.05;;;;;;;2.61;100.00;100053.41;5034521;28;20033;-77
2021/11/28 10:36:07;;;;;;;5.80;0.93;;;;;;;2.66;100.00;100059.63;5034303;28;20532;-77
2021/11/28 10:38:41;;;;;;;2.45;0.70;;;;;;;2.69;100.00;100054.53;5032166;28;20029;-78
2021/11/28 10:41:27;;;;;;;2.33;0.80;;;;;;;2.74;100.00;100056.41;5032192;28;20037;-77
2021/11/28 10:43:53;;;;;;;2.75;0.98;;;;;;;2.77;100.00;100061.72;5031024;28;20474;-78
2021/11/28 10:46:23;;;;;;;4.07;1.20;;;;;;;2.80;100.00;100062.72;5036803;28;20481;-78
2021/11/28 10:49:05;;;;;;;1.10;0.98;;;;;;;2.86;100.00;100077.63;5035344;28;20033;-78
2021/11/28 10:51:32;;;;;;;3.03;1.88;;;;;;;2.90;100.00;100074.31;5034817;28;20053;-79
2021/11/28 10:53:58;;;;;;;5.40;1.40;;;;;;;2.99;100.00;100079.84;5033462;28;20029;-79
2021/11/28 10:56:23;;;;;;;2.67;1.55;;;;;;;3.04;100.00;100078.28;5035270;28;20029;-79
2021/11/28 10:58:49;;;;;;;6.50;1.58;;;;;;;3.09;100.00;100083.63;5034023;28;20049;-79
2021/11/28 11:01:15;;;;;;;1.67;1.08;;;;;;;3.17;100.00;100078.69;5035273;28;20041;-77
2021/11/28 11:03:49;;;;;;;3.75;1.58;;;;;;;3.17;100.00;100084.81;5032419;28;20105;-77
2021/11/28 11:06:19;;;;;;;1.25;1.10;;;;;;;3.18;100.00;100085.69;5029410;28;20032;-78
2021/11/28 11:08:48;;;;;;;3.53;1.30;;;;;;;3.17;100.00;100089.09;5033228;28;20044;-79
2021/11/28 11:11:16;;;;;;;4.22;1.85;;;;;;;3.13;100.00;100082.03;5025732;28;20470;-79
2021/11/28 11:14:01;;;;;;;7.30;1.75;;;;;;;3.10;100.00;100071.53;5034659;28;20037;-79
2021/11/28 11:16:30;;;;;;;1.88;1.38;;;;;;;3.07;100.00;100074.91;5036859;28;20164;-79
2021/11/28 11:19:29;;;;;;;2.42;1.45;;;;;;;3.04;100.00;100080.03;5036437;28;20041;-78
2021/11/28 11:22:05;;;;;;;5.95;1.80;;;;;;;3.03;100.00;100079.09;5033386;28;20037;-78
2021/11/28 11:24:31;;;;;;;8.80;2.42;;;;;;;3.06;100.00;100075.72;5032153;28;20077;-78